createdAt,value
2019-05-30T00:00:49.041Z,8.73
2019-05-30T00:03:20.646Z,8.13
2019-05-30T00:05:51.236Z,8.23
2019-05-30T00:08:21.856Z,8.13
2019-05-30T00:10:52.446Z,7.87
2019-05-30T00:13:22.966Z,8.80
2019-05-30T00:15:56.518Z,7.70
2019-05-30T00:18:27.247Z,8.37
2019-05-30T00:20:58.754Z,8.20
2019-05-30T00:23:30.421Z,8.20
2019-05-30T00:26:01.419Z,6.90
2019-05-30T00:28:32.041Z,7.93
2019-05-30T00:31:02.587Z,7.03
2019-05-30T00:33:33.196Z,8.47
2019-05-30T00:36:03.967Z,8.23
2019-05-30T00:38:34.663Z,7.87
2019-05-30T00:41:06.196Z,8.03
2019-05-30T00:43:36.911Z,8.87
2019-05-30T00:46:07.519Z,8.93
2019-05-30T00:48:37.972Z,8.23
2019-05-30T00:51:08.443Z,7.87
2019-05-30T00:53:39.079Z,8.13
2019-05-30T00:56:09.511Z,7.93
2019-05-30T00:58:40.021Z,7.60
2019-05-30T01:01:10.635Z,7.77
2019-05-30T01:03:42.944Z,7.87
2019-05-30T01:06:13.620Z,6.90
2019-05-30T01:08:44.088Z,7.60
2019-05-30T01:11:14.618Z,7.43
2019-05-30T01:13:45.140Z,7.20
2019-05-30T01:16:15.620Z,6.80
2019-05-30T01:18:46.132Z,8.50
2019-05-30T01:21:18.216Z,8.23
2019-05-30T01:23:48.811Z,8.27
2019-05-30T01:26:19.351Z,7.80
2019-05-30T01:28:49.864Z,7.17
2019-05-30T01:31:20.448Z,8.90
2019-05-30T01:33:51.087Z,9.13
2019-05-30T01:36:21.508Z,8.83
2019-05-30T01:38:52.149Z,8.20
2019-05-30T01:41:22.608Z,9.07
2019-05-30T01:43:53.763Z,9.53
2019-05-30T01:46:24.336Z,8.70
2019-05-30T01:48:56.216Z,8.53
2019-05-30T01:51:28.442Z,9.10
2019-05-30T01:53:58.902Z,9.00
2019-05-30T01:56:30.531Z,8.93
2019-05-30T01:59:01.030Z,7.63
2019-05-30T02:01:31.600Z,8.13
2019-05-30T02:04:03.270Z,9.00
2019-05-30T02:06:37.878Z,8.63
2019-05-30T02:09:09.627Z,7.70
2019-05-30T02:11:40.494Z,8.10
2019-05-30T02:14:11.122Z,8.77
2019-05-30T02:16:41.728Z,8.30
2019-05-30T02:19:12.222Z,8.77
2019-05-30T02:21:44.394Z,8.37
2019-05-30T02:24:15.007Z,8.43
2019-05-30T02:26:45.641Z,8.17
2019-05-30T02:29:16.229Z,8.30
2019-05-30T02:31:49.036Z,8.80
2019-05-30T02:34:19.564Z,9.00
2019-05-30T02:36:50.038Z,9.17
2019-05-30T02:39:20.597Z,9.70
2019-05-30T02:41:51.087Z,9.27
2019-05-30T02:44:21.534Z,9.43
2019-05-30T02:46:55.694Z,8.97
2019-05-30T02:49:26.252Z,9.63
2019-05-30T02:51:56.871Z,8.33
2019-05-30T02:54:27.386Z,8.97
2019-05-30T02:56:57.889Z,8.70
2019-05-30T02:59:29.442Z,9.20
2019-05-30T03:02:04.011Z,9.43
2019-05-30T03:04:32.247Z,9.27
2019-05-30T03:07:04.095Z,8.90
2019-05-30T03:09:35.496Z,9.00
2019-05-30T03:12:06.956Z,10.13
2019-05-30T03:14:38.451Z,8.70
2019-05-30T03:17:11.412Z,8.67
2019-05-30T03:19:41.086Z,7.77
2019-05-30T03:22:13.808Z,7.70
2019-05-30T03:24:44.990Z,7.23
2019-05-30T03:27:15.491Z,7.83
2019-05-30T03:29:46.167Z,8.83
2019-05-30T03:32:59.337Z,7.63
2019-05-30T03:34:49.150Z,6.90
2019-05-30T03:37:28.474Z,7.40
2019-05-30T03:39:51.745Z,7.60
2019-05-30T03:42:22.305Z,7.53
2019-05-30T03:44:52.881Z,7.77
2019-05-30T03:47:25.369Z,8.07
2019-05-30T03:49:58.011Z,7.07
2019-05-30T03:52:28.986Z,7.60
2019-05-30T03:55:00.374Z,7.57
2019-05-30T03:57:35.393Z,6.90
2019-05-30T04:00:11.950Z,6.97
2019-05-30T04:02:58.440Z,7.43
2019-05-30T04:05:30.531Z,6.60
2019-05-30T04:08:04.723Z,7.00
2019-05-30T04:10:39.003Z,6.70
2019-05-30T04:13:34.945Z,7.17
2019-05-30T04:16:06.949Z,6.20
2019-05-30T04:18:38.219Z,7.30
2019-05-30T04:21:10.838Z,7.37
2019-05-30T04:23:40.869Z,6.27
2019-05-30T04:26:11.546Z,6.30
2019-05-30T04:28:42.118Z,6.50
2019-05-30T04:31:14.391Z,6.97
2019-05-30T04:33:44.941Z,6.47
2019-05-30T04:36:17.027Z,5.97
2019-05-30T04:38:47.623Z,5.90
2019-05-30T04:41:19.222Z,6.23
2019-05-30T04:43:51.562Z,6.13
2019-05-30T04:46:22.236Z,6.03
2019-05-30T04:48:52.887Z,5.80
2019-05-30T04:51:23.397Z,5.87
2019-05-30T04:53:54.017Z,5.30
2019-05-30T04:56:24.532Z,5.00
2019-05-30T04:58:56.129Z,5.70
2019-05-30T05:01:26.567Z,4.73
2019-05-30T05:03:57.361Z,4.47
2019-05-30T05:06:28.015Z,4.83
2019-05-30T05:08:58.612Z,4.60
2019-05-30T05:11:29.054Z,3.97
2019-05-30T05:13:59.551Z,3.83
2019-05-30T05:16:35.545Z,4.07
2019-05-30T05:19:03.261Z,4.17
2019-05-30T05:21:33.744Z,4.07
2019-05-30T05:24:04.261Z,3.53
2019-05-30T05:26:35.449Z,3.67
2019-05-30T05:29:05.933Z,3.60
2019-05-30T05:31:36.587Z,3.00
2019-05-30T05:34:07.143Z,2.90
2019-05-30T05:36:37.645Z,2.83
2019-05-30T05:39:08.783Z,3.00
2019-05-30T05:41:39.303Z,2.73
2019-05-30T05:44:09.919Z,3.17
2019-05-30T05:46:40.745Z,2.70
2019-05-30T05:49:11.297Z,2.30
2019-05-30T05:51:41.821Z,3.63
2019-05-30T05:54:12.365Z,2.33
2019-05-30T05:56:42.825Z,2.50
2019-05-30T05:59:13.418Z,2.40
2019-05-30T06:01:44.063Z,2.23
2019-05-30T06:04:14.583Z,2.60
2019-05-30T06:06:45.046Z,2.47
2019-05-30T06:09:16.402Z,2.13
2019-05-30T06:11:49.039Z,2.60
2019-05-30T06:14:19.857Z,2.50
2019-05-30T06:16:51.643Z,2.72
2019-05-30T06:19:23.193Z,2.57
2019-05-30T06:21:54.720Z,2.17
2019-05-30T06:24:25.720Z,2.27
2019-05-30T06:26:56.393Z,1.67
2019-05-30T06:29:26.963Z,2.10
2019-05-30T06:31:57.745Z,2.40
2019-05-30T06:34:38.585Z,2.17
2019-05-30T06:37:00.565Z,2.27
2019-05-30T06:39:31.202Z,1.73
2019-05-30T06:42:01.695Z,1.70
2019-05-30T06:44:33.429Z,1.67
2019-05-30T06:47:03.943Z,1.60
2019-05-30T06:49:34.603Z,2.08
2019-05-30T06:52:05.388Z,1.60
2019-05-30T06:54:35.851Z,1.40
2019-05-30T06:57:06.484Z,1.60
2019-05-30T06:59:37.063Z,1.70
2019-05-30T07:02:07.572Z,1.30
2019-05-30T07:04:51.114Z,1.60
2019-05-30T07:07:10.422Z,1.20
2019-05-30T07:09:41.249Z,1.60
2019-05-30T07:12:12.099Z,1.67
2019-05-30T07:14:42.924Z,1.63
2019-05-30T07:17:13.347Z,1.40
2019-05-30T07:19:43.870Z,1.70
2019-05-30T07:22:14.403Z,1.33
2019-05-30T07:24:44.960Z,1.70
2019-05-30T07:27:16.641Z,1.60
2019-05-30T07:29:47.250Z,1.80
2019-05-30T07:32:17.777Z,1.70
2019-05-30T07:34:48.281Z,2.10
2019-05-30T07:37:19.961Z,2.20
2019-05-30T07:39:50.437Z,1.80
2019-05-30T07:42:20.981Z,1.70
2019-05-30T07:44:51.439Z,2.10
2019-05-30T07:47:23.039Z,1.87
2019-05-30T07:49:53.723Z,2.03
2019-05-30T07:52:24.174Z,1.53
2019-05-30T07:54:54.637Z,2.40
2019-05-30T07:57:26.139Z,2.13
2019-05-30T07:59:56.742Z,1.87
2019-05-30T08:02:27.525Z,1.80
2019-05-30T08:04:58.173Z,1.90
2019-05-30T08:07:28.724Z,1.60
2019-05-30T08:10:00.269Z,2.70
2019-05-30T08:12:31.823Z,2.23
2019-05-30T08:15:05.134Z,2.20
2019-05-30T08:17:35.733Z,1.97
2019-05-30T08:20:06.503Z,1.57
2019-05-30T08:22:38.189Z,2.37
2019-05-30T08:25:09.798Z,2.20
2019-05-30T08:27:40.585Z,2.17
2019-05-30T08:30:13.012Z,1.60
2019-05-30T08:32:43.689Z,1.80
2019-05-30T08:35:14.605Z,2.50
2019-05-30T08:37:45.219Z,2.17
2019-05-30T08:40:16.386Z,1.67
2019-05-30T08:42:46.841Z,2.00
2019-05-30T08:45:17.838Z,1.83
2019-05-30T08:47:48.413Z,2.10
2019-05-30T08:50:19.003Z,2.03
2019-05-30T08:52:49.607Z,2.10
2019-05-30T08:55:20.387Z,2.17
2019-05-30T08:57:52.445Z,2.10
2019-05-30T09:00:23.659Z,1.73
2019-05-30T09:02:54.236Z,1.93
2019-05-30T09:05:24.877Z,1.83
2019-05-30T09:07:55.381Z,2.20
2019-05-30T09:10:25.848Z,1.57
2019-05-30T09:12:56.469Z,1.70
2019-05-30T09:15:27.713Z,1.80
2019-05-30T09:17:58.182Z,1.80
2019-05-30T09:20:30.863Z,2.00
2019-05-30T09:23:01.170Z,1.87
2019-05-30T09:25:32.734Z,1.70
2019-05-30T09:28:03.285Z,2.10
2019-05-30T09:30:33.734Z,2.00
2019-05-30T09:33:04.424Z,2.00
2019-05-30T09:35:35.030Z,2.10
2019-05-30T09:38:06.864Z,2.27
2019-05-30T09:40:39.134Z,2.10
2019-05-30T09:43:10.929Z,1.73
2019-05-30T09:45:42.383Z,1.63
2019-05-30T09:48:12.854Z,1.90
2019-05-30T09:50:43.906Z,1.73
2019-05-30T09:53:15.600Z,2.33
2019-05-30T09:55:46.234Z,1.90
2019-05-30T09:58:17.931Z,1.77
2019-05-30T10:00:49.035Z,1.70
2019-05-30T10:03:20.609Z,1.83
2019-05-30T10:05:51.148Z,1.83
2019-05-30T10:08:21.867Z,1.90
2019-05-30T10:10:53.464Z,1.60
2019-05-30T10:13:24.261Z,1.80
2019-05-30T10:15:55.135Z,1.53
2019-05-30T10:18:25.740Z,1.80
2019-05-30T10:20:57.100Z,2.10
2019-05-30T10:23:27.700Z,2.13
2019-05-30T10:25:58.165Z,2.00
2019-05-30T10:28:29.203Z,2.23
2019-05-30T10:30:59.872Z,1.90
2019-05-30T10:33:30.423Z,2.00
2019-05-30T10:36:00.945Z,1.90
2019-05-30T10:38:31.515Z,1.90
2019-05-30T10:41:02.105Z,2.57
2019-05-30T10:43:32.690Z,2.17
2019-05-30T10:46:03.251Z,2.00
2019-05-30T10:48:33.958Z,2.00
2019-05-30T10:51:04.609Z,2.27
2019-05-30T10:53:37.544Z,2.30
2019-05-30T10:56:07.323Z,2.10
2019-05-30T10:58:37.818Z,2.10
2019-05-30T11:01:08.243Z,2.17
2019-05-30T11:03:38.748Z,2.23
2019-05-30T11:06:27.111Z,2.23
2019-05-30T11:08:59.060Z,3.10
2019-05-30T11:11:29.571Z,1.90
2019-05-30T11:14:00.113Z,2.00
2019-05-30T11:16:30.573Z,2.03
2019-05-30T11:19:01.268Z,2.73
2019-05-30T11:21:31.808Z,1.97
2019-05-30T11:24:02.380Z,2.37
2019-05-30T11:26:32.859Z,1.83
2019-05-30T11:29:03.332Z,2.07
2019-05-30T11:31:33.827Z,2.07
2019-05-30T11:34:04.465Z,1.83
2019-05-30T11:36:35.094Z,1.73
2019-05-30T11:39:07.081Z,1.83
2019-05-30T11:41:37.602Z,2.23
2019-05-30T11:44:08.152Z,1.77
2019-05-30T11:46:38.603Z,1.80
2019-05-30T11:49:09.082Z,2.10
2019-05-30T11:51:39.633Z,1.80
2019-05-30T11:54:10.134Z,1.83
2019-05-30T11:56:40.693Z,1.80
2019-05-30T11:59:11.224Z,2.23
2019-05-30T12:01:41.684Z,1.80
2019-05-30T12:04:12.241Z,1.70
2019-05-30T12:06:42.727Z,2.20
2019-05-30T12:09:14.636Z,1.33
2019-05-30T12:11:45.247Z,2.47
2019-05-30T12:14:15.862Z,1.70
2019-05-30T12:16:46.303Z,2.27
2019-05-30T12:19:16.869Z,1.90
2019-05-30T12:21:47.324Z,1.43
2019-05-30T12:24:17.880Z,1.60
2019-05-30T12:26:48.444Z,1.50
2019-05-30T12:29:19.034Z,1.53
2019-05-30T12:31:49.666Z,1.60
2019-05-30T12:34:20.188Z,1.97
2019-05-30T12:36:50.801Z,1.63
2019-05-30T12:39:21.334Z,1.60
2019-05-30T12:41:52.798Z,1.90
2019-05-30T12:44:23.524Z,1.57
2019-05-30T12:46:55.457Z,1.93
2019-05-30T12:49:26.134Z,2.23
2019-05-30T12:51:56.696Z,1.83
2019-05-30T12:54:27.265Z,1.60
2019-05-30T12:56:58.846Z,1.70
2019-05-30T12:59:29.424Z,1.50
2019-05-30T13:02:01.113Z,1.40
2019-05-30T13:04:31.898Z,1.90
2019-05-30T13:07:03.366Z,2.03
2019-05-30T13:12:57.540Z,1.93
2019-05-30T13:15:28.158Z,1.70
2019-05-30T13:17:58.886Z,1.77
2019-05-30T13:20:29.982Z,2.07
2019-05-30T13:23:00.640Z,1.57
2019-05-30T13:25:32.281Z,2.00
2019-05-30T13:28:06.296Z,1.60
2019-05-30T13:30:35.122Z,1.70
2019-05-30T13:33:06.827Z,1.90
2019-05-30T13:35:37.400Z,1.83
2019-05-30T13:38:08.006Z,2.43
2019-05-30T13:40:38.580Z,2.13
2019-05-30T13:43:09.274Z,1.60
2019-05-30T13:45:39.792Z,1.63
2019-05-30T13:48:10.683Z,1.77
2019-05-30T13:50:41.368Z,1.83
2019-05-30T13:53:11.888Z,1.67
2019-05-30T13:55:42.544Z,1.67
2019-05-30T13:58:13.078Z,1.90
2019-05-30T14:00:43.882Z,2.10
2019-05-30T14:03:17.437Z,1.60
2019-05-30T14:05:47.903Z,2.03
2019-05-30T14:08:18.502Z,1.90
2019-05-30T14:10:49.055Z,1.77
2019-05-30T14:13:19.669Z,1.60
2019-05-30T14:15:50.129Z,1.70
2019-05-30T14:18:22.597Z,1.90
2019-05-30T14:20:52.812Z,1.97
2019-05-30T14:23:23.466Z,1.47
2019-05-30T14:25:54.009Z,2.30
2019-05-30T14:28:24.916Z,1.90
2019-05-30T14:30:55.606Z,1.73
2019-05-30T14:33:28.741Z,1.80
2019-05-30T14:35:59.305Z,1.63
2019-05-30T14:38:30.901Z,1.50
2019-05-30T14:41:02.886Z,1.53
2019-05-30T14:43:33.623Z,1.60
2019-05-30T14:46:04.307Z,1.30
2019-05-30T14:48:34.927Z,1.60
2019-05-30T14:51:08.646Z,1.60
2019-05-30T14:53:41.807Z,2.07
2019-05-30T14:56:13.554Z,1.63
2019-05-30T14:58:44.216Z,1.77
2019-05-30T15:01:17.505Z,1.70
2019-05-30T15:03:52.221Z,1.40
2019-05-30T15:06:22.479Z,1.40
2019-05-30T15:08:53.241Z,1.50
2019-05-30T15:11:24.101Z,1.57
2019-05-30T15:13:54.734Z,1.70
2019-05-30T15:16:25.420Z,1.87
2019-05-30T15:18:55.960Z,1.73
2019-05-30T15:21:26.590Z,1.40
2019-05-30T15:23:57.220Z,1.50
2019-05-30T15:26:27.788Z,1.40
2019-05-30T15:29:00.358Z,1.80
2019-05-30T15:31:30.833Z,1.50
2019-05-30T15:34:02.101Z,1.30
2019-05-30T15:48:00.372Z,1.80
2019-05-30T15:50:31.359Z,1.97
2019-05-30T15:53:02.181Z,1.80
2019-05-30T15:55:32.819Z,2.00
2019-05-30T15:58:05.823Z,1.97
2019-05-30T16:00:37.015Z,2.10
2019-05-30T16:03:07.748Z,1.70
2019-05-30T16:05:38.370Z,1.80
2019-05-30T16:08:08.862Z,1.83
2019-05-30T16:10:39.505Z,1.80
2019-05-30T16:13:11.425Z,2.10
2019-05-30T16:15:44.478Z,1.90
2019-05-30T16:18:15.602Z,1.63
2019-05-30T16:20:46.411Z,1.77
2019-05-30T16:23:18.796Z,2.13
2019-05-30T16:25:50.585Z,1.77
2019-05-30T16:28:22.840Z,1.47
2019-05-30T16:30:53.561Z,1.87
2019-05-30T16:33:28.698Z,2.00
2019-05-30T16:36:01.995Z,1.80
2019-05-30T16:38:32.478Z,1.50
2019-05-30T16:41:03.070Z,1.73
2019-05-30T16:43:33.654Z,1.63
2019-05-30T16:46:04.183Z,2.30
2019-05-30T16:48:34.731Z,1.93
2019-05-30T16:51:05.414Z,1.77
2019-05-30T16:53:35.950Z,1.83
2019-05-30T16:56:09.602Z,2.07
2019-05-30T16:58:40.237Z,2.27
2019-05-30T17:01:12.453Z,1.70
2019-05-30T17:03:43.037Z,2.10
2019-05-30T17:06:15.812Z,1.70
2019-05-30T17:08:46.325Z,1.73
2019-05-30T17:11:17.337Z,1.90
2019-05-30T17:13:48.221Z,2.00
2019-05-30T17:16:20.043Z,1.63
2019-05-30T17:18:50.853Z,2.20
2019-05-30T17:21:24.783Z,1.97
2019-05-30T17:23:55.391Z,1.83
2019-05-30T17:26:25.999Z,1.60
2019-05-30T17:28:58.140Z,2.20
2019-05-30T17:31:28.773Z,2.03
2019-05-30T17:33:59.531Z,2.27
2019-05-30T17:36:30.183Z,2.30
2019-05-30T17:39:00.696Z,1.80
2019-05-30T17:41:32.846Z,2.07
2019-05-30T17:44:03.433Z,1.77
2019-05-30T17:46:38.090Z,2.10
2019-05-30T17:49:08.757Z,1.80
2019-05-30T17:51:39.322Z,1.90
2019-05-30T17:54:09.987Z,1.93
2019-05-30T17:56:40.624Z,1.90
2019-05-30T17:59:11.161Z,1.80
2019-05-30T18:01:41.737Z,2.10
2019-05-30T18:04:12.379Z,2.87
2019-05-30T18:06:47.659Z,3.40
2019-05-30T18:09:20.953Z,2.80
2019-05-30T18:11:52.405Z,2.80
2019-05-30T18:14:25.075Z,3.00
2019-05-30T18:16:55.897Z,2.17
2019-05-30T18:19:27.339Z,2.27
2019-05-30T18:21:58.000Z,2.33
2019-05-30T18:24:29.597Z,2.00
2019-05-30T18:27:00.065Z,2.00
2019-05-30T18:29:30.612Z,1.57
2019-05-30T18:32:01.091Z,1.80
2019-05-30T18:34:32.738Z,1.90
2019-05-30T18:37:03.563Z,1.90
2019-05-30T18:39:34.103Z,1.93
2019-05-30T18:42:04.585Z,2.30
2019-05-30T18:44:35.331Z,2.60
2019-05-30T18:47:05.937Z,2.07
2019-05-30T18:49:38.519Z,1.80
2019-05-30T18:52:09.219Z,2.43
2019-05-30T18:54:39.875Z,2.20
2019-05-30T18:57:10.437Z,2.30
2019-05-30T18:59:41.112Z,2.90
2019-05-30T19:02:11.645Z,2.70
2019-05-30T19:04:42.265Z,2.80
2019-05-30T19:07:12.784Z,2.00
2019-05-30T19:09:43.453Z,3.90
2019-05-30T19:12:14.019Z,3.40
2019-05-30T19:14:44.621Z,2.30
2019-05-30T19:17:17.447Z,2.17
2019-05-30T19:19:51.126Z,2.50
2019-05-30T19:22:20.160Z,3.00
2019-05-30T19:24:50.637Z,3.20
2019-05-30T19:27:21.326Z,3.70
2019-05-30T19:29:52.029Z,4.17
2019-05-30T19:32:22.637Z,4.13
2019-05-30T19:34:53.291Z,3.63
2019-05-30T19:37:24.165Z,4.50
2019-05-30T19:39:55.607Z,5.57
2019-05-30T19:42:27.284Z,7.00
2019-05-30T19:44:59.029Z,6.90
2019-05-30T19:47:30.307Z,7.30
2019-05-30T19:50:05.362Z,7.43
2019-05-30T19:52:36.914Z,7.77
2019-05-30T19:55:10.259Z,7.87
2019-05-30T19:57:40.822Z,7.70
2019-05-30T20:00:12.786Z,7.93
2019-05-30T20:02:43.401Z,8.57
2019-05-30T20:05:15.197Z,7.80
2019-05-30T20:07:45.825Z,9.33
2019-05-30T20:10:16.619Z,8.60
2019-05-30T20:12:47.197Z,8.40
2019-05-30T20:15:18.101Z,7.87
2019-05-30T20:17:48.782Z,9.00
2019-05-30T20:20:19.461Z,9.10
2019-05-30T20:22:50.108Z,8.80
2019-05-30T20:25:21.826Z,13.60
2019-05-30T20:27:52.475Z,9.30
2019-05-30T20:30:23.528Z,8.83
2019-05-30T20:32:54.142Z,10.30
2019-05-30T20:35:24.675Z,9.57
2019-05-30T20:37:57.380Z,9.83
2019-05-30T20:40:28.067Z,10.00
2019-05-30T20:42:58.736Z,10.23
2019-05-30T20:45:29.378Z,10.93
2019-05-30T20:47:59.988Z,9.00
2019-05-30T20:50:30.552Z,9.97
2019-05-30T20:53:01.204Z,10.37
2019-05-30T20:55:31.734Z,10.73
2019-05-30T20:58:03.861Z,10.43
2019-05-30T21:00:40.148Z,10.73
2019-05-30T21:03:12.290Z,11.83
2019-05-30T21:05:46.030Z,10.70
2019-05-30T21:08:17.731Z,10.70
2019-05-30T21:10:49.273Z,11.27
2019-05-30T21:13:20.402Z,11.63
2019-05-30T21:15:51.161Z,10.87
2019-05-30T21:18:21.731Z,11.00
2019-05-30T21:20:52.262Z,11.23
2019-05-30T21:23:22.697Z,10.20
2019-05-30T21:25:53.352Z,11.17
2019-05-30T21:28:25.170Z,10.70
2019-05-30T21:30:55.721Z,10.97
2019-05-30T21:33:26.549Z,9.83
2019-05-30T21:35:57.121Z,11.30
2019-05-30T21:38:27.641Z,11.37
2019-05-30T21:40:58.107Z,11.00
2019-05-30T21:43:28.601Z,11.27
2019-05-30T21:45:59.158Z,12.63
2019-05-30T21:48:29.782Z,11.87
2019-05-30T21:51:00.360Z,11.57
2019-05-30T21:53:33.961Z,13.20
2019-05-30T21:56:04.563Z,12.73
2019-05-30T21:58:35.104Z,11.70
2019-05-30T22:01:34.663Z,13.13
2019-05-30T22:04:05.805Z,12.50
2019-05-30T22:06:36.762Z,12.80
2019-05-30T22:09:11.765Z,13.00
2019-05-30T22:11:43.619Z,13.07
2019-05-30T22:14:15.302Z,11.80
2019-05-30T22:16:46.019Z,12.93
2019-05-30T22:19:16.642Z,11.80
2019-05-30T22:21:48.342Z,12.40
2019-05-30T22:24:22.033Z,13.20
2019-05-30T22:26:52.690Z,13.40
2019-05-30T22:29:27.416Z,12.80
2019-05-30T22:31:57.743Z,13.73
2019-05-30T22:34:28.265Z,13.17
2019-05-30T22:36:58.902Z,13.43
2019-05-30T22:39:29.372Z,13.87
2019-05-30T22:41:59.922Z,12.67
2019-05-30T22:44:30.714Z,13.50
2019-05-30T22:47:01.303Z,13.33
2019-05-30T22:49:31.942Z,13.63
2019-05-30T22:52:02.574Z,13.97
2019-05-30T22:54:33.143Z,12.90
2019-05-30T22:57:03.730Z,13.07
2019-05-30T22:59:34.223Z,14.07
2019-05-30T23:02:04.678Z,14.30
2019-05-30T23:04:35.222Z,14.13
2019-05-30T23:07:05.722Z,14.80
2019-05-30T23:09:36.288Z,13.73
2019-05-30T23:12:06.838Z,14.63
2019-05-30T23:14:37.426Z,14.50
2019-05-30T23:17:07.905Z,14.63
2019-05-30T23:19:39.866Z,14.47
2019-05-30T23:22:10.388Z,13.83
2019-05-30T23:24:40.909Z,14.60
2019-05-30T23:27:12.479Z,14.27
2019-05-30T23:29:42.944Z,15.50
2019-05-30T23:32:13.468Z,14.37
2019-05-30T23:34:44.070Z,13.93
2019-05-30T23:37:14.643Z,14.70
2019-05-30T23:39:45.235Z,14.70
2019-05-30T23:42:15.761Z,15.50
2019-05-30T23:44:46.242Z,14.53
2019-05-30T23:47:17.980Z,15.27
2019-05-30T23:49:49.868Z,15.53
2019-05-30T23:52:20.538Z,14.90
2019-05-30T23:54:52.149Z,15.53
2019-05-30T23:57:22.884Z,16.43
2019-05-30T23:59:54.644Z,15.93
